createdAt,value
2017-09-29T00:01:58.647Z,17.30
2017-09-29T00:04:26.167Z,17.30
2017-09-29T00:06:53.668Z,17.30
2017-09-29T00:09:21.961Z,17.20
2017-09-29T00:11:49.477Z,17.20
2017-09-29T00:14:17.187Z,17.20
2017-09-29T00:16:44.696Z,17.20
2017-09-29T00:19:12.233Z,17.20
2017-09-29T00:21:39.766Z,17.20
2017-09-29T00:24:07.297Z,17.20
2017-09-29T00:26:35.568Z,17.20
2017-09-29T00:29:03.855Z,17.20
2017-09-29T00:31:32.138Z,17.20
2017-09-29T00:34:00.429Z,17.20
2017-09-29T00:36:27.944Z,17.10
2017-09-29T00:38:56.255Z,17.10
2017-09-29T00:41:23.765Z,17.10
2017-09-29T00:43:51.287Z,17.10
2017-09-29T00:46:18.792Z,17.10
2017-09-29T00:48:46.319Z,17.10
2017-09-29T00:51:13.830Z,17.10
2017-09-29T00:53:42.129Z,17.10
2017-09-29T00:56:09.646Z,17.10
2017-09-29T00:58:37.178Z,17.00
2017-09-29T01:01:04.692Z,17.00
2017-09-29T01:03:32.962Z,17.00
2017-09-29T01:06:01.240Z,17.10
2017-09-29T01:08:29.561Z,17.00
2017-09-29T01:10:57.087Z,17.00
2017-09-29T01:13:24.604Z,17.00
2017-09-29T01:15:52.119Z,17.00
2017-09-29T01:18:19.632Z,17.00
2017-09-29T01:20:47.154Z,16.90
2017-09-29T01:23:14.686Z,16.90
2017-09-29T01:25:42.961Z,16.90
2017-09-29T01:28:11.237Z,16.90
2017-09-29T01:30:39.519Z,16.90
2017-09-29T01:33:07.788Z,17.00
2017-09-29T01:35:36.077Z,17.00
2017-09-29T01:38:03.671Z,17.00
2017-09-29T01:40:31.201Z,17.00
2017-09-29T01:42:58.709Z,16.90
2017-09-29T01:45:26.247Z,16.90
2017-09-29T01:47:53.750Z,16.90
2017-09-29T01:50:21.254Z,16.90
2017-09-29T01:52:48.783Z,16.90
2017-09-29T01:55:16.296Z,16.80
2017-09-29T01:57:43.844Z,16.80
2017-09-29T02:00:11.351Z,16.80
2017-09-29T02:02:38.866Z,16.90
2017-09-29T02:05:06.391Z,16.90
2017-09-29T02:07:33.903Z,16.90
2017-09-29T02:16:45.777Z,16.90
2017-09-29T02:19:14.124Z,16.70
2017-09-29T02:21:41.669Z,16.70
2017-09-29T02:24:09.225Z,16.70
2017-09-29T02:26:36.724Z,16.60
2017-09-29T02:29:05.003Z,16.70
2017-09-29T02:31:32.548Z,16.60
2017-09-29T02:34:00.087Z,16.60
2017-09-29T02:36:27.602Z,16.60
2017-09-29T02:38:55.113Z,16.60
2017-09-29T02:41:22.619Z,16.60
2017-09-29T02:43:50.222Z,16.60
2017-09-29T02:46:17.753Z,16.50
2017-09-29T02:48:45.270Z,16.60
2017-09-29T02:51:12.796Z,16.50
2017-09-29T02:53:40.324Z,16.50
2017-09-29T02:56:07.873Z,16.50
2017-09-29T02:58:41.747Z,16.50
2017-09-29T03:01:15.528Z,16.50
2017-09-29T03:03:47.621Z,16.50
2017-09-29T03:06:15.169Z,16.50
2017-09-29T03:08:42.689Z,16.40
2017-09-29T03:11:10.196Z,16.50
2017-09-29T03:13:37.705Z,16.40
2017-09-29T03:16:05.215Z,16.40
2017-09-29T03:18:32.752Z,16.40
2017-09-29T03:21:00.269Z,16.40
2017-09-29T03:23:28.544Z,16.30
2017-09-29T03:25:56.089Z,16.30
2017-09-29T03:28:24.375Z,16.30
2017-09-29T03:30:52.657Z,16.30
2017-09-29T03:33:20.931Z,16.20
2017-09-29T03:35:49.207Z,16.20
2017-09-29T03:38:17.485Z,16.20
2017-09-29T03:40:45.764Z,16.10
2017-09-29T03:43:14.062Z,16.10
2017-09-29T03:45:41.576Z,16.10
2017-09-29T03:48:09.083Z,16.10
2017-09-29T03:50:39.850Z,16.10
2017-09-29T03:53:14.179Z,16.10
2017-09-29T03:55:44.123Z,16.00
2017-09-29T03:58:14.911Z,15.90
2017-09-29T04:00:42.438Z,16.00
2017-09-29T04:03:09.979Z,16.00
2017-09-29T04:05:38.293Z,16.00
2017-09-29T04:08:05.864Z,16.00
2017-09-29T04:10:33.385Z,16.00
2017-09-29T04:13:00.900Z,15.90
2017-09-29T04:15:28.426Z,15.90
2017-09-29T04:17:55.996Z,16.00
2017-09-29T04:20:23.509Z,15.90
2017-09-29T04:22:51.792Z,15.90
2017-09-29T04:25:20.069Z,15.90
2017-09-29T04:27:48.769Z,15.80
2017-09-29T04:30:17.707Z,15.80
2017-09-29T04:32:45.329Z,15.70
2017-09-29T04:35:12.873Z,15.80
2017-09-29T04:37:40.393Z,15.70
2017-09-29T04:40:07.925Z,15.70
2017-09-29T04:42:35.441Z,15.70
2017-09-29T04:45:02.972Z,15.70
2017-09-29T04:47:30.477Z,15.60
2017-09-29T04:49:58.751Z,15.60
2017-09-29T04:52:27.054Z,15.60
2017-09-29T04:54:54.573Z,15.50
2017-09-29T04:57:22.114Z,15.50
2017-09-29T04:59:49.636Z,15.50
2017-09-29T05:02:17.185Z,15.50
2017-09-29T05:04:44.708Z,15.40
2017-09-29T05:07:12.257Z,15.40
2017-09-29T05:09:39.815Z,15.40
2017-09-29T05:12:07.347Z,15.50
2017-09-29T05:14:34.854Z,15.50
2017-09-29T05:17:02.563Z,15.50
2017-09-29T05:19:30.148Z,15.40
2017-09-29T05:21:57.686Z,15.30
2017-09-29T05:24:25.198Z,15.30
2017-09-29T05:26:53.486Z,15.40
2017-09-29T05:29:21.845Z,15.30
2017-09-29T05:31:49.396Z,15.30
2017-09-29T05:34:16.905Z,15.30
2017-09-29T05:36:44.442Z,15.30
2017-09-29T05:39:11.977Z,15.30
2017-09-29T05:41:39.509Z,15.20
2017-09-29T05:44:07.153Z,15.20
2017-09-29T05:46:34.761Z,15.20
2017-09-29T05:49:02.269Z,15.20
2017-09-29T05:51:29.782Z,15.20
2017-09-29T05:53:57.472Z,15.20
2017-09-29T05:56:25.023Z,15.20
2017-09-29T05:58:53.312Z,15.10
2017-09-29T06:01:20.855Z,15.10
2017-09-29T06:03:48.385Z,15.10
2017-09-29T06:06:15.896Z,15.10
2017-09-29T06:08:43.452Z,15.20
2017-09-29T06:11:10.971Z,15.20
2017-09-29T06:13:38.591Z,15.20
2017-09-29T06:16:06.104Z,15.10
2017-09-29T06:18:33.611Z,15.20
2017-09-29T06:21:01.132Z,15.10
2017-09-29T06:23:28.657Z,15.10
2017-09-29T06:25:56.194Z,15.20
2017-09-29T06:28:23.712Z,15.10
2017-09-29T06:30:51.229Z,15.10
2017-09-29T06:33:18.758Z,15.20
2017-09-29T06:35:46.281Z,15.20
2017-09-29T06:38:13.795Z,15.20
2017-09-29T06:40:41.442Z,15.30
2017-09-29T06:43:08.952Z,15.30
2017-09-29T06:45:36.627Z,15.30
2017-09-29T06:48:04.902Z,15.20
2017-09-29T06:50:33.174Z,15.20
2017-09-29T06:53:00.703Z,15.20
2017-09-29T06:55:28.214Z,15.20
2017-09-29T06:57:55.735Z,15.30
2017-09-29T07:00:23.281Z,15.60
2017-09-29T07:02:50.794Z,15.80
2017-09-29T07:05:18.315Z,15.90
2017-09-29T07:07:45.824Z,15.90
2017-09-29T07:10:13.381Z,15.90
2017-09-29T07:12:41.010Z,15.80
2017-09-29T07:15:08.540Z,15.90
2017-09-29T07:17:36.049Z,15.80
2017-09-29T07:20:04.352Z,15.90
2017-09-29T07:22:31.852Z,15.90
2017-09-29T07:25:04.640Z,15.80
2017-09-29T07:27:34.847Z,15.70
2017-09-29T07:30:06.140Z,15.80
2017-09-29T07:32:33.722Z,15.90
2017-09-29T07:35:01.253Z,15.90
2017-09-29T07:37:28.769Z,15.90
2017-09-29T07:39:56.281Z,15.90
2017-09-29T07:42:24.764Z,16.00
2017-09-29T07:44:55.957Z,16.00
2017-09-29T07:47:23.568Z,16.00
2017-09-29T07:49:51.848Z,16.10
2017-09-29T07:52:20.137Z,16.20
2017-09-29T07:54:47.683Z,16.20
2017-09-29T07:57:15.190Z,16.30
2017-09-29T07:59:42.689Z,16.20
2017-09-29T08:02:10.985Z,16.40
2017-09-29T08:04:38.519Z,16.40
2017-09-29T08:07:06.815Z,16.50
2017-09-29T08:09:34.328Z,16.40
2017-09-29T08:12:01.846Z,16.50
2017-09-29T08:14:29.403Z,16.60
2017-09-29T08:16:56.903Z,16.60
2017-09-29T08:19:24.418Z,16.60
2017-09-29T08:21:51.994Z,16.60
2017-09-29T08:24:19.528Z,16.70
2017-09-29T08:26:47.812Z,16.80
2017-09-29T08:29:15.346Z,16.80
2017-09-29T08:31:42.858Z,16.80
2017-09-29T08:34:10.365Z,16.90
2017-09-29T08:36:38.659Z,16.90
2017-09-29T08:39:06.918Z,16.90
2017-09-29T08:41:35.200Z,16.90
2017-09-29T08:44:03.480Z,17.00
2017-09-29T08:46:31.756Z,17.10
2017-09-29T08:49:00.058Z,17.20
2017-09-29T08:51:27.579Z,17.20
2017-09-29T08:53:55.081Z,17.20
2017-09-29T08:56:22.603Z,17.30
2017-09-29T08:58:50.181Z,17.40
2017-09-29T09:01:17.694Z,17.50
2017-09-29T09:03:45.232Z,17.70
2017-09-29T09:06:12.742Z,17.80
2017-09-29T09:08:40.396Z,17.90
2017-09-29T09:11:07.908Z,18.10
2017-09-29T09:13:35.445Z,18.10
2017-09-29T09:16:03.015Z,18.10
2017-09-29T09:18:30.531Z,18.10
2017-09-29T09:20:58.146Z,18.20
2017-09-29T09:23:25.658Z,18.20
2017-09-29T09:25:53.189Z,18.40
2017-09-29T09:28:20.705Z,18.50
2017-09-29T09:30:48.223Z,18.70
2017-09-29T09:33:15.735Z,18.90
2017-09-29T09:35:43.286Z,19.00
2017-09-29T09:38:10.816Z,19.00
2017-09-29T09:40:38.333Z,19.20
2017-09-29T09:43:05.870Z,19.20
2017-09-29T09:45:33.392Z,19.40
2017-09-29T09:48:00.896Z,19.50
2017-09-29T09:50:28.436Z,19.60
2017-09-29T09:52:56.028Z,19.60
2017-09-29T09:55:23.532Z,19.70
2017-09-29T09:57:51.064Z,19.90
2017-09-29T10:00:18.577Z,20.00
2017-09-29T10:02:46.109Z,20.10
2017-09-29T10:05:13.627Z,20.10
2017-09-29T10:07:41.142Z,20.00
2017-09-29T10:10:09.457Z,20.40
2017-09-29T10:12:38.681Z,20.60
2017-09-29T10:15:06.190Z,20.80
2017-09-29T10:17:33.715Z,21.70
2017-09-29T10:20:01.237Z,23.50
2017-09-29T10:22:28.753Z,25.40
2017-09-29T10:24:57.053Z,28.30
2017-09-29T10:27:24.576Z,28.30
2017-09-29T10:29:52.088Z,29.60
2017-09-29T10:32:19.596Z,30.70
2017-09-29T10:34:47.128Z,31.50
2017-09-29T10:37:14.649Z,32.50
2017-09-29T10:39:42.172Z,33.60
2017-09-29T10:42:09.994Z,34.50
2017-09-29T10:44:37.518Z,35.30
2017-09-29T10:47:05.778Z,36.10
2017-09-29T10:49:34.076Z,36.80
2017-09-29T10:52:01.592Z,36.80
2017-09-29T10:54:29.090Z,37.40
2017-09-29T10:56:56.606Z,37.60
2017-09-29T10:59:24.135Z,38.00
2017-09-29T11:01:51.717Z,38.30
2017-09-29T11:04:19.223Z,38.90
2017-09-29T11:06:47.520Z,38.10
2017-09-29T11:09:15.055Z,38.00
2017-09-29T11:11:43.332Z,38.20
2017-09-29T11:14:10.854Z,38.20
2017-09-29T11:16:38.389Z,38.60
2017-09-29T11:19:05.916Z,39.00
2017-09-29T11:21:34.194Z,39.70
2017-09-29T11:24:01.717Z,39.60
2017-09-29T11:26:29.226Z,40.00
2017-09-29T11:28:56.761Z,39.80
2017-09-29T11:31:24.271Z,40.10
2017-09-29T11:33:51.785Z,40.70
2017-09-29T11:36:20.068Z,41.80
2017-09-29T11:38:48.342Z,42.10
2017-09-29T11:41:16.625Z,41.50
2017-09-29T11:43:44.898Z,42.10
2017-09-29T11:46:13.174Z,41.80
2017-09-29T11:48:41.548Z,41.80
2017-09-29T11:51:09.097Z,41.80
2017-09-29T11:53:36.614Z,42.20
2017-09-29T11:56:04.120Z,42.80
2017-09-29T11:58:31.696Z,43.20
2017-09-29T12:01:00.052Z,43.00
2017-09-29T12:03:27.588Z,43.00
2017-09-29T12:05:55.112Z,43.30
2017-09-29T12:08:22.624Z,43.20
2017-09-29T12:10:50.138Z,42.40
2017-09-29T12:13:17.654Z,41.70
2017-09-29T12:15:45.165Z,41.00
2017-09-29T12:18:12.683Z,40.10
2017-09-29T12:20:40.202Z,38.90
2017-09-29T12:23:07.725Z,37.90
2017-09-29T12:25:35.237Z,37.20
2017-09-29T12:28:02.739Z,36.90
2017-09-29T12:30:30.262Z,35.90
2017-09-29T12:32:57.776Z,35.30
2017-09-29T12:35:25.294Z,34.70
2017-09-29T12:37:52.808Z,33.80
2017-09-29T12:40:20.321Z,33.10
2017-09-29T12:42:48.693Z,32.00
2017-09-29T12:45:17.086Z,32.00
2017-09-29T12:47:44.630Z,31.70
2017-09-29T12:50:12.151Z,31.40
2017-09-29T12:52:39.646Z,30.90
2017-09-29T12:55:07.249Z,30.60
2017-09-29T12:57:34.787Z,30.40
2017-09-29T13:00:03.071Z,30.40
2017-09-29T13:02:30.618Z,30.40
2017-09-29T13:04:58.483Z,30.50
2017-09-29T13:07:26.001Z,30.40
2017-09-29T13:09:53.512Z,30.10
2017-09-29T13:12:21.058Z,30.10
2017-09-29T13:14:48.578Z,30.10
2017-09-29T13:17:16.224Z,30.20
2017-09-29T13:19:44.051Z,30.00
2017-09-29T13:22:11.548Z,29.50
2017-09-29T13:24:39.071Z,29.00
2017-09-29T13:27:07.397Z,28.10
2017-09-29T13:29:34.904Z,28.00
2017-09-29T13:32:03.217Z,27.60
2017-09-29T13:34:30.751Z,27.50
2017-09-29T13:36:59.016Z,27.40
2017-09-29T13:39:27.286Z,27.30
2017-09-29T13:41:55.590Z,27.30
2017-09-29T13:44:23.095Z,27.30
2017-09-29T13:46:50.751Z,27.60
2017-09-29T13:49:18.279Z,27.60
2017-09-29T13:51:45.770Z,27.40
2017-09-29T13:54:13.304Z,27.00
2017-09-29T13:56:40.826Z,26.80
2017-09-29T13:59:08.364Z,26.70
2017-09-29T14:01:35.943Z,27.10
2017-09-29T14:04:04.262Z,27.30
2017-09-29T14:06:31.794Z,27.30
2017-09-29T14:09:00.071Z,27.60
2017-09-29T14:11:28.348Z,29.20
2017-09-29T14:13:56.631Z,31.00
2017-09-29T14:16:24.148Z,31.00
2017-09-29T14:18:51.678Z,32.20
2017-09-29T14:21:19.184Z,32.60
2017-09-29T14:23:46.706Z,31.70
2017-09-29T14:26:14.212Z,30.60
2017-09-29T14:28:41.715Z,30.10
2017-09-29T14:31:09.219Z,29.70
2017-09-29T14:33:36.728Z,29.50
2017-09-29T14:36:04.265Z,29.30
2017-09-29T14:38:31.802Z,29.40
2017-09-29T14:41:00.084Z,30.20
2017-09-29T14:43:28.370Z,30.20
2017-09-29T14:45:56.647Z,29.80
2017-09-29T14:48:24.944Z,29.30
2017-09-29T14:50:52.470Z,29.30
2017-09-29T14:53:19.983Z,28.50
2017-09-29T14:55:47.526Z,27.70
2017-09-29T14:58:15.092Z,27.20
2017-09-29T15:00:42.617Z,26.80
2017-09-29T15:03:10.891Z,26.20
2017-09-29T15:05:39.173Z,26.00
2017-09-29T15:08:07.452Z,25.80
2017-09-29T15:10:35.738Z,25.50
2017-09-29T15:13:03.280Z,25.50
2017-09-29T15:15:30.832Z,25.30
2017-09-29T15:17:58.386Z,25.10
2017-09-29T15:20:25.983Z,24.80
2017-09-29T15:22:53.528Z,24.70
2017-09-29T15:25:21.049Z,24.50
2017-09-29T15:27:48.594Z,24.40
2017-09-29T15:30:16.119Z,24.30
2017-09-29T15:32:43.650Z,24.20
2017-09-29T15:35:11.258Z,24.10
2017-09-29T15:37:39.144Z,23.90
2017-09-29T15:40:06.964Z,23.80
2017-09-29T15:42:35.238Z,23.50
2017-09-29T15:45:02.789Z,23.50
2017-09-29T15:47:31.059Z,23.20
2017-09-29T15:49:58.567Z,23.10
2017-09-29T15:52:26.090Z,23.00
2017-09-29T15:54:53.613Z,22.90
2017-09-29T15:57:21.119Z,22.70
2017-09-29T15:59:49.498Z,22.40
2017-09-29T16:02:17.020Z,22.40
2017-09-29T16:04:44.556Z,22.30
2017-09-29T16:07:12.071Z,22.20
2017-09-29T16:09:39.570Z,22.10
2017-09-29T16:12:07.088Z,21.90
2017-09-29T16:14:35.374Z,21.80
2017-09-29T16:17:03.656Z,21.70
2017-09-29T16:19:31.170Z,21.70
2017-09-29T16:21:58.707Z,21.60
2017-09-29T16:24:26.338Z,21.60
2017-09-29T16:26:53.893Z,21.50
2017-09-29T16:29:21.424Z,21.40
2017-09-29T16:31:48.951Z,21.30
2017-09-29T16:34:16.490Z,21.20
2017-09-29T16:36:44.032Z,21.20
2017-09-29T16:39:11.551Z,21.10
2017-09-29T16:41:39.097Z,21.10
2017-09-29T16:44:06.615Z,21.20
2017-09-29T16:46:34.133Z,21.10
2017-09-29T16:49:01.640Z,21.20
2017-09-29T16:51:29.209Z,21.20
2017-09-29T16:53:57.078Z,21.10
2017-09-29T16:56:24.594Z,21.00
2017-09-29T16:58:52.884Z,20.90
2017-09-29T17:01:21.287Z,20.90
2017-09-29T17:03:48.817Z,20.80
2017-09-29T17:06:17.129Z,20.80
2017-09-29T17:08:44.689Z,20.80
2017-09-29T17:11:12.207Z,20.60
2017-09-29T17:13:40.525Z,20.40
2017-09-29T17:16:08.074Z,20.40
2017-09-29T17:18:35.605Z,20.40
2017-09-29T17:21:03.207Z,20.40
2017-09-29T17:23:30.728Z,20.30
2017-09-29T17:25:59.042Z,20.00
2017-09-29T17:28:26.551Z,20.00
2017-09-29T17:30:54.469Z,20.00
2017-09-29T17:33:21.991Z,20.00
2017-09-29T17:35:50.291Z,20.00
2017-09-29T17:38:17.805Z,19.90
2017-09-29T17:40:45.524Z,19.90
2017-09-29T17:43:13.027Z,19.90
2017-09-29T17:45:40.549Z,19.80
2017-09-29T17:48:08.055Z,19.80
2017-09-29T17:50:35.568Z,19.70
2017-09-29T17:53:03.096Z,19.60
2017-09-29T17:55:32.655Z,19.40
2017-09-29T17:58:00.191Z,19.40
2017-09-29T18:00:27.725Z,19.50
2017-09-29T18:02:56.058Z,19.40
2017-09-29T18:05:23.567Z,19.30
2017-09-29T18:07:51.087Z,19.30
2017-09-29T18:10:18.649Z,19.10
2017-09-29T18:12:46.157Z,18.90
2017-09-29T18:15:13.669Z,18.90
2017-09-29T18:17:41.191Z,18.80
2017-09-29T18:20:08.725Z,18.70
2017-09-29T18:22:36.236Z,18.60
2017-09-29T18:25:03.759Z,18.40
2017-09-29T18:27:31.279Z,18.40
2017-09-29T18:29:58.825Z,18.40
2017-09-29T18:32:26.360Z,18.30
2017-09-29T18:34:53.983Z,18.30
2017-09-29T18:37:22.277Z,18.20
2017-09-29T18:39:49.793Z,18.20
2017-09-29T18:42:17.319Z,18.10
2017-09-29T18:44:50.283Z,18.10
2017-09-29T18:47:33.595Z,18.10
2017-09-29T18:50:01.894Z,17.90
2017-09-29T18:52:29.484Z,17.90
2017-09-29T18:54:57.296Z,17.90
2017-09-29T18:57:25.557Z,17.80
2017-09-29T18:59:53.071Z,17.80
2017-09-29T19:02:20.611Z,17.80
2017-09-29T19:04:48.152Z,17.60
2017-09-29T19:07:15.727Z,17.60
2017-09-29T19:09:43.253Z,17.60
2017-09-29T19:12:10.778Z,17.60
2017-09-29T19:14:38.334Z,17.50
2017-09-29T19:17:05.846Z,17.50
2017-09-29T19:19:33.364Z,17.40
2017-09-29T19:22:00.857Z,17.50
2017-09-29T19:24:29.170Z,17.40
2017-09-29T19:26:56.696Z,17.40
2017-09-29T19:29:24.217Z,17.30
2017-09-29T19:31:51.743Z,17.20
2017-09-29T19:34:19.268Z,17.20
2017-09-29T19:36:47.160Z,17.20
2017-09-29T19:39:14.691Z,17.20
2017-09-29T19:41:42.249Z,17.20
2017-09-29T19:44:09.751Z,17.10
2017-09-29T19:46:37.275Z,17.10
2017-09-29T19:49:05.601Z,17.00
2017-09-29T19:51:33.129Z,17.00
2017-09-29T19:54:00.646Z,16.90
2017-09-29T19:56:28.152Z,16.90
2017-09-29T19:58:56.459Z,16.90
2017-09-29T20:01:23.975Z,16.90
2017-09-29T20:03:51.507Z,16.90
2017-09-29T20:06:19.019Z,16.90
2017-09-29T20:08:46.591Z,16.80
2017-09-29T20:11:14.129Z,16.80
2017-09-29T20:13:42.804Z,16.60
2017-09-29T20:16:11.116Z,16.60
2017-09-29T20:18:38.636Z,16.60
2017-09-29T20:21:06.212Z,16.60
2017-09-29T20:23:33.732Z,16.50
2017-09-29T20:26:01.420Z,16.40
2017-09-29T20:28:28.952Z,16.40
2017-09-29T20:30:56.527Z,16.40
2017-09-29T20:33:24.807Z,16.40
2017-09-29T20:35:52.361Z,16.30
2017-09-29T20:38:19.911Z,16.30
2017-09-29T20:40:47.473Z,16.40
2017-09-29T20:43:16.169Z,16.30
2017-09-29T20:45:43.694Z,16.30
2017-09-29T20:48:11.209Z,16.30
2017-09-29T20:50:38.832Z,16.30
2017-09-29T20:53:06.402Z,16.30
2017-09-29T20:55:33.965Z,16.20
2017-09-29T20:58:01.529Z,16.20
2017-09-29T21:00:29.058Z,16.10
2017-09-29T21:02:56.579Z,16.00
2017-09-29T21:05:24.146Z,16.00
2017-09-29T21:07:51.845Z,16.00
2017-09-29T21:10:19.403Z,16.00
2017-09-29T21:12:46.924Z,16.00
2017-09-29T21:15:14.532Z,16.00
2017-09-29T21:17:42.101Z,15.90
2017-09-29T21:20:09.616Z,16.00
2017-09-29T21:22:37.123Z,15.90
2017-09-29T21:25:04.798Z,15.90
2017-09-29T21:27:33.225Z,15.80
2017-09-29T21:30:00.731Z,15.70
2017-09-29T21:32:28.273Z,15.80
2017-09-29T21:34:55.875Z,15.80
2017-09-29T21:37:24.231Z,15.80
2017-09-29T21:39:51.794Z,15.70
2017-09-29T21:42:19.297Z,15.80
2017-09-29T21:44:46.901Z,15.70
2017-09-29T21:47:15.242Z,15.70
2017-09-29T21:49:42.755Z,15.70
2017-09-29T21:52:10.306Z,15.70
2017-09-29T21:54:37.843Z,15.70
2017-09-29T21:57:05.386Z,15.60
2017-09-29T21:59:32.907Z,15.60
2017-09-29T22:02:01.247Z,15.60
2017-09-29T22:04:28.824Z,15.60
2017-09-29T22:06:56.550Z,15.60
2017-09-29T22:09:24.135Z,15.50
2017-09-29T22:11:51.641Z,15.50
2017-09-29T22:14:19.217Z,15.50
2017-09-29T22:16:46.761Z,15.40
2017-09-29T22:19:14.331Z,15.30
2017-09-29T22:21:41.859Z,15.20
2017-09-29T22:24:09.382Z,15.20
2017-09-29T22:26:36.945Z,15.20
2017-09-29T22:29:04.526Z,15.20
2017-09-29T22:31:32.157Z,15.20
2017-09-29T22:33:59.725Z,15.20
2017-09-29T22:36:27.284Z,15.20
2017-09-29T22:38:54.951Z,15.10
2017-09-29T22:41:22.481Z,15.10
2017-09-29T22:43:50.020Z,15.10
2017-09-29T22:46:18.475Z,15.00
2017-09-29T22:48:46.367Z,15.00
2017-09-29T22:51:13.924Z,15.00
2017-09-29T22:53:41.443Z,15.00
2017-09-29T22:56:09.062Z,14.90
2017-09-29T22:58:36.632Z,14.80
2017-09-29T23:01:04.152Z,14.90
2017-09-29T23:03:31.786Z,14.80
2017-09-29T23:05:59.372Z,14.90
2017-09-29T23:08:27.048Z,14.90
2017-09-29T23:10:54.604Z,14.80
2017-09-29T23:13:23.023Z,14.70
2017-09-29T23:15:50.541Z,14.70
2017-09-29T23:18:18.830Z,14.80
2017-09-29T23:20:47.112Z,14.80
2017-09-29T23:23:14.627Z,14.80
2017-09-29T23:25:42.163Z,14.80
2017-09-29T23:28:09.721Z,14.70
2017-09-29T23:30:37.273Z,14.70
2017-09-29T23:33:04.799Z,14.70
2017-09-29T23:35:32.324Z,14.60
2017-09-29T23:37:59.851Z,14.50
2017-09-29T23:40:27.357Z,14.50
2017-09-29T23:42:54.903Z,14.40
2017-09-29T23:45:23.208Z,14.40
2017-09-29T23:47:51.485Z,14.30
2017-09-29T23:50:20.550Z,14.40
2017-09-29T23:52:49.008Z,14.40
2017-09-29T23:55:16.517Z,14.30
2017-09-29T23:57:44.049Z,14.30
